createdAt,value
2023-04-12T00:02:18.694Z,100121.81
2023-04-12T00:07:21.697Z,100101.53
2023-04-12T00:12:25.957Z,100066.88
2023-04-12T00:17:30.237Z,100056.47
2023-04-12T00:22:33.065Z,100041.53
2023-04-12T00:27:36.144Z,100024.31
2023-04-12T00:32:40.732Z,100006.72
2023-04-12T00:37:43.673Z,99996.38
2023-04-12T00:42:46.903Z,99972.16
2023-04-12T00:47:51.202Z,99963.81
2023-04-12T00:52:55.493Z,99936.94
2023-04-12T00:57:59.367Z,99908.84
2023-04-12T01:03:05.373Z,99901.84
2023-04-12T01:08:15.030Z,99872.44
2023-04-12T01:13:31.553Z,99856.97
2023-04-12T01:18:45.699Z,99860.09
2023-04-12T01:24:13.793Z,99827.69
2023-04-12T01:29:20.721Z,99817.97
2023-04-12T01:34:24.413Z,99806.31
2023-04-12T01:39:27.491Z,99788.38
2023-04-12T01:44:31.810Z,99775.19
2023-04-12T01:49:41.629Z,99760.88
2023-04-12T01:54:50.632Z,99749.22
2023-04-12T01:59:55.146Z,99742.66
2023-04-12T02:04:58.067Z,99721.09
2023-04-12T02:10:00.893Z,99713.34
2023-04-12T02:15:08.060Z,99712.69
2023-04-12T02:20:12.083Z,99698.69
2023-04-12T02:25:18.116Z,99675.97
2023-04-12T02:30:23.078Z,99663.53
2023-04-12T02:35:29.262Z,99657.03
2023-04-12T02:40:40.800Z,99649.50
2023-04-12T02:45:46.347Z,99640.16
2023-04-12T02:50:49.291Z,99608.50
2023-04-12T02:55:57.321Z,99614.06
2023-04-12T03:01:07.587Z,99592.94
2023-04-12T03:06:25.033Z,99597.91
2023-04-12T03:11:28.024Z,99587.19
2023-04-12T03:16:33.127Z,99576.66
2023-04-12T03:21:45.694Z,99558.88
2023-04-12T03:26:50.110Z,99558.81
2023-04-12T03:31:59.628Z,99540.88
2023-04-12T03:37:04.492Z,99543.88
2023-04-12T03:42:32.452Z,99543.31
2023-04-12T03:47:45.872Z,99536.59
2023-04-12T03:52:50.499Z,99526.47
2023-04-12T03:57:53.856Z,99499.25
2023-04-12T04:03:03.193Z,99492.47
2023-04-12T04:08:08.962Z,99505.34
2023-04-12T04:13:24.244Z,99485.41
2023-04-12T04:18:35.986Z,99486.47
2023-04-12T04:23:40.162Z,99481.94
2023-04-12T04:28:45.953Z,99469.38
2023-04-12T04:33:54.602Z,99472.03
2023-04-12T04:39:05.763Z,99470.84
2023-04-12T04:44:14.389Z,99467.25
2023-04-12T04:49:30.119Z,99468.75
2023-04-12T04:54:40.097Z,99467.66
2023-04-12T04:59:44.186Z,99470.69
2023-04-12T05:04:56.398Z,99469.91
2023-04-12T05:10:01.857Z,99473.66
2023-04-12T05:15:11.634Z,99462.97
2023-04-12T05:20:18.466Z,99463.94
2023-04-12T05:25:21.782Z,99460.00
2023-04-12T05:30:34.434Z,99455.22
2023-04-12T05:35:39.790Z,99458.34
2023-04-12T05:40:44.031Z,99449.81
2023-04-12T05:45:47.477Z,99457.84
2023-04-12T05:50:55.359Z,99443.38
2023-04-12T05:55:59.401Z,99436.19
2023-04-12T06:01:02.424Z,99441.84
2023-04-12T06:06:07.626Z,99436.75
2023-04-12T06:11:12.076Z,99448.41
2023-04-12T06:16:15.576Z,99452.13
2023-04-12T06:21:20.320Z,99456.44
2023-04-12T06:26:23.221Z,99450.28
2023-04-12T07:24:53.041Z,99432.47
2023-04-12T07:29:56.054Z,99432.59
2023-04-12T07:34:59.278Z,99434.44
2023-04-12T07:40:03.586Z,99441.69
2023-04-12T07:45:07.258Z,99431.50
2023-04-12T07:50:13.066Z,99414.38
2023-04-12T07:55:17.631Z,99407.13
2023-04-12T08:00:21.607Z,99412.47
2023-04-12T08:05:24.474Z,99431.94
2023-04-12T08:10:28.704Z,99459.22
2023-04-12T08:15:31.545Z,99484.16
2023-04-12T08:20:34.343Z,99493.84
2023-04-12T08:25:38.556Z,99502.91
2023-04-12T08:30:41.335Z,99539.13
2023-04-12T08:35:44.142Z,99554.56
2023-04-12T08:40:48.245Z,99548.38
2023-04-12T08:45:51.190Z,99570.31
2023-04-12T08:50:54.429Z,99557.81
2023-04-12T08:55:58.551Z,99559.53
2023-04-12T09:01:01.704Z,99558.91
2023-04-12T09:06:04.740Z,99566.00
2023-04-12T09:16:49.333Z,99570.78
2023-04-12T09:21:56.456Z,99577.25
2023-04-12T09:27:03.938Z,99581.94
2023-04-12T09:32:09.823Z,99583.59
2023-04-12T09:37:16.302Z,99595.34
2023-04-12T09:47:40.420Z,99603.53
2023-04-12T09:52:43.704Z,99597.56
2023-04-12T09:57:47.967Z,99616.34
2023-04-12T10:02:54.109Z,99603.97
2023-04-12T10:07:57.827Z,99608.75
2023-04-12T10:13:03.644Z,99600.25
2023-04-12T10:18:08.135Z,99608.97
2023-04-12T10:23:12.175Z,99607.47
2023-04-12T10:28:16.460Z,99608.53
2023-04-12T10:33:26.211Z,99612.75
2023-04-12T10:38:35.276Z,99607.41
2023-04-12T10:43:39.298Z,99620.88
2023-04-12T10:48:52.843Z,99622.03
2023-04-12T10:54:35.523Z,99608.72
2023-04-12T10:59:57.057Z,99628.28
2023-04-12T11:05:10.408Z,99634.94
2023-04-12T11:10:27.615Z,99630.53
2023-04-12T11:15:33.989Z,99635.16
2023-04-12T11:20:40.380Z,99643.78
2023-04-12T11:25:43.150Z,99641.47
2023-04-12T11:30:53.074Z,99636.66
2023-04-12T11:35:56.102Z,99639.19
2023-04-12T11:40:59.659Z,99640.50
2023-04-12T11:46:04.202Z,99646.81
2023-04-12T11:51:20.346Z,99646.59
2023-04-12T11:56:23.964Z,99643.44
2023-04-12T12:01:29.316Z,99640.41
2023-04-12T12:06:32.723Z,99632.19
2023-04-12T12:11:35.670Z,99648.69
2023-04-12T12:16:41.793Z,99650.31
2023-04-12T12:21:44.615Z,99655.34
2023-04-12T12:26:50.418Z,99656.31
2023-04-12T12:31:54.824Z,99652.00
2023-04-12T12:36:57.890Z,99657.03
2023-04-12T12:42:00.708Z,99641.84
2023-04-12T12:47:13.934Z,99660.25
2023-04-12T12:52:18.037Z,99658.06
2023-04-12T12:57:21.043Z,99663.38
2023-04-12T13:02:25.417Z,99650.78
2023-04-12T13:07:28.471Z,99652.31
2023-04-12T13:12:31.273Z,99638.72
2023-04-12T13:17:35.762Z,99641.56
2023-04-12T13:22:38.640Z,99650.94
2023-04-12T13:27:41.614Z,99646.22
2023-04-12T13:32:45.842Z,99633.13
2023-04-12T13:37:48.697Z,99629.81
2023-04-12T13:42:51.554Z,99616.53
2023-04-12T13:47:56.064Z,99632.13
2023-04-12T13:52:59.096Z,99612.28
2023-04-12T13:58:01.998Z,99619.50
2023-04-12T14:03:06.571Z,99611.19
2023-04-12T14:08:09.487Z,99613.06
2023-04-12T14:13:12.373Z,99622.38
2023-04-12T14:18:16.978Z,99623.66
2023-04-12T14:23:20.456Z,99618.16
2023-04-12T14:28:24.275Z,99616.00
2023-04-12T14:33:29.405Z,99602.75
2023-04-12T14:38:32.258Z,99602.94
2023-04-12T14:43:35.170Z,99606.53
2023-04-12T14:48:39.508Z,99609.97
2023-04-12T14:53:43.467Z,99600.97
2023-04-12T14:58:46.364Z,99597.59
2023-04-12T15:03:51.745Z,99589.81
2023-04-12T15:08:55.371Z,99603.44
2023-04-12T15:13:58.457Z,99604.25
2023-04-12T15:19:10.425Z,99602.94
2023-04-12T15:24:16.521Z,99598.88
2023-04-12T15:29:21.280Z,99593.56
2023-04-12T15:34:25.934Z,99596.97
2023-04-12T15:39:49.351Z,99628.63
2023-04-12T15:44:52.438Z,99622.69
2023-04-12T15:49:56.821Z,99621.97
2023-04-12T15:54:59.955Z,99629.09
2023-04-12T16:00:12.706Z,99638.59
2023-04-12T16:05:37.404Z,99618.59
2023-04-12T16:10:41.403Z,99621.97
2023-04-12T16:15:44.664Z,99627.19
2023-04-12T16:20:48.922Z,99631.34
2023-04-12T16:25:51.915Z,99614.50
2023-04-12T16:31:16.311Z,99620.22
2023-04-12T16:36:23.558Z,99626.91
2023-04-12T16:41:26.717Z,99619.06
2023-04-12T16:46:29.777Z,99611.13
2023-04-12T16:51:36.920Z,99618.97
2023-04-12T16:56:59.443Z,99612.13
2023-04-12T17:02:02.299Z,99600.84
2023-04-12T17:07:06.584Z,99583.63
2023-04-12T17:12:09.607Z,99574.25
2023-04-12T17:17:12.640Z,99572.25
2023-04-12T17:22:35.379Z,99570.06
2023-04-12T17:27:38.383Z,99571.56
2023-04-12T17:32:42.495Z,99561.88
2023-04-12T17:37:47.229Z,99558.28
2023-04-12T17:42:50.097Z,99557.56
2023-04-12T17:48:14.385Z,99560.75
2023-04-12T17:53:18.621Z,99552.91
2023-04-12T17:58:21.632Z,99552.91
2023-04-12T18:03:24.826Z,99556.44
2023-04-12T18:08:29.283Z,99556.13
2023-04-12T18:13:50.689Z,99571.53
2023-04-12T18:18:54.814Z,99563.78
2023-04-12T18:23:59.551Z,99553.03
2023-04-12T18:29:02.659Z,99541.38
2023-04-12T18:34:05.492Z,99548.19
2023-04-12T18:39:30.016Z,99571.94
2023-04-12T18:44:34.291Z,99551.69
2023-04-12T18:49:55.050Z,99564.75
2023-04-12T18:54:59.226Z,99561.28
2023-04-12T19:00:05.463Z,99563.19
2023-04-12T19:05:23.866Z,99553.44
2023-04-12T19:10:30.804Z,99558.19
2023-04-12T19:15:35.955Z,99553.09
2023-04-12T19:20:38.759Z,99556.16
2023-04-12T19:25:43.456Z,99547.75
2023-04-12T19:30:46.312Z,99542.09
2023-04-12T19:35:49.995Z,99542.78
2023-04-12T19:40:54.864Z,99539.03
2023-04-12T19:45:58.538Z,99519.16
2023-04-12T19:51:01.520Z,99514.56
2023-04-12T19:56:15.061Z,99506.56
2023-04-12T20:01:18.794Z,99502.72
2023-04-12T20:06:23.590Z,99492.19
2023-04-12T20:11:27.896Z,99485.94
2023-04-12T20:16:32.968Z,99472.91
2023-04-12T20:21:49.672Z,99462.84
2023-04-12T20:26:53.868Z,99434.88
2023-04-12T20:32:12.462Z,99388.81
2023-04-12T20:37:15.696Z,99360.88
2023-04-12T20:42:20.639Z,99333.09
2023-04-12T20:47:27.628Z,99309.00
2023-04-12T20:52:31.220Z,99293.28
2023-04-12T20:57:35.983Z,99268.59
2023-04-12T21:02:39.706Z,99253.50
2023-04-12T21:07:42.729Z,99239.88
2023-04-12T21:13:04.061Z,99218.56
2023-04-12T21:18:07.106Z,99217.16
2023-04-12T21:23:10.121Z,99209.94
2023-04-12T21:28:14.932Z,99223.56
2023-04-12T21:33:21.826Z,99209.22
2023-04-12T21:38:39.472Z,99198.25
2023-04-12T21:43:45.020Z,99195.91
2023-04-12T21:48:48.034Z,99198.19
2023-04-12T21:53:51.063Z,99206.78
2023-04-12T21:58:57.202Z,99215.81
2023-04-12T22:04:15.902Z,99213.94
2023-04-12T22:09:18.830Z,99221.31
2023-04-12T22:14:23.876Z,99227.59
2023-04-12T22:19:26.774Z,99227.59
2023-04-12T22:24:30.724Z,99203.66
2023-04-12T22:29:53.479Z,99195.63
2023-04-12T22:35:08.176Z,99186.72
2023-04-12T22:40:13.688Z,99184.38
2023-04-12T22:45:18.519Z,99168.19
2023-04-12T22:50:21.897Z,99147.59
2023-04-12T22:55:29.949Z,99136.22
2023-04-12T23:00:35.182Z,99113.97
2023-04-12T23:05:38.584Z,99090.41
2023-04-12T23:10:42.068Z,99079.13
2023-04-12T23:15:47.312Z,99077.50
2023-04-12T23:21:05.665Z,99060.81
2023-04-12T23:26:09.960Z,99026.94
2023-04-12T23:31:15.172Z,99006.28
2023-04-12T23:36:21.854Z,98993.06
2023-04-12T23:41:24.698Z,98984.66
2023-04-12T23:46:43.040Z,98959.53
2023-04-12T23:51:45.973Z,98951.53
2023-04-12T23:56:48.825Z,98939.66
